sensor_id;sensor_type;location;lat;lon;timestamp;pressure;altitude;pressure_sealevel;temperature;humidity
22259;BME280;11298;46.034;14.496;2022-07-23T00:00:20;98195.19;;;24.91;61.49
22259;BME280;11298;46.034;14.496;2022-07-23T00:02:47;98188.91;;;24.86;61.66
22259;BME280;11298;46.034;14.496;2022-07-23T00:05:14;98189.91;;;24.76;62.13
22259;BME280;11298;46.034;14.496;2022-07-23T00:07:42;98192.69;;;24.76;62.33
22259;BME280;11298;46.034;14.496;2022-07-23T00:10:09;98196.38;;;24.71;62.08
22259;BME280;11298;46.034;14.496;2022-07-23T00:12:37;98191.44;;;24.68;61.94
22259;BME280;11298;46.034;14.496;2022-07-23T00:15:18;98189.88;;;24.62;61.65
22259;BME280;11298;46.034;14.496;2022-07-23T00:17:45;98187.53;;;24.56;62.10
22259;BME280;11298;46.034;14.496;2022-07-23T00:20:13;98187.31;;;24.52;62.21
22259;BME280;11298;46.034;14.496;2022-07-23T00:22:54;98183.19;;;24.50;62.48
22259;BME280;11298;46.034;14.496;2022-07-23T00:25:23;98184.94;;;24.46;62.10
22259;BME280;11298;46.034;14.496;2022-07-23T00:27:57;98183.78;;;24.47;61.73
22259;BME280;11298;46.034;14.496;2022-07-23T00:30:24;98191.09;;;24.43;62.39
22259;BME280;11298;46.034;14.496;2022-07-23T00:32:54;98190.56;;;24.41;62.15
22259;BME280;11298;46.034;14.496;2022-07-23T00:35:25;98188.41;;;24.37;62.45
22259;BME280;11298;46.034;14.496;2022-07-23T00:37:53;98192.91;;;24.33;62.88
22259;BME280;11298;46.034;14.496;2022-07-23T00:40:21;98190.28;;;24.23;62.89
22259;BME280;11298;46.034;14.496;2022-07-23T00:42:48;98195.84;;;24.23;62.94
22259;BME280;11298;46.034;14.496;2022-07-23T00:45:15;98203.13;;;24.19;62.72
22259;BME280;11298;46.034;14.496;2022-07-23T00:47:43;98197.66;;;24.14;62.70
22259;BME280;11298;46.034;14.496;2022-07-23T00:50:10;98198.03;;;24.08;62.84
22259;BME280;11298;46.034;14.496;2022-07-23T00:52:38;98199.44;;;24.05;62.99
22259;BME280;11298;46.034;14.496;2022-07-23T00:55:07;98195.09;;;23.99;62.92
22259;BME280;11298;46.034;14.496;2022-07-23T00:57:36;98200.66;;;23.99;62.90
22259;BME280;11298;46.034;14.496;2022-07-23T01:00:04;98187.31;;;24.01;62.99
22259;BME280;11298;46.034;14.496;2022-07-23T01:02:33;98186.34;;;23.92;62.82
22259;BME280;11298;46.034;14.496;2022-07-23T01:05:00;98177.38;;;23.81;63.22
22259;BME280;11298;46.034;14.496;2022-07-23T01:07:28;98181.63;;;23.73;63.21
22259;BME280;11298;46.034;14.496;2022-07-23T01:09:55;98169.94;;;23.77;63.28
22259;BME280;11298;46.034;14.496;2022-07-23T01:12:22;98173.78;;;23.81;63.06
22259;BME280;11298;46.034;14.496;2022-07-23T01:14:59;98174.38;;;23.78;63.15
22259;BME280;11298;46.034;14.496;2022-07-23T01:17:28;98165.00;;;23.73;63.47
22259;BME280;11298;46.034;14.496;2022-07-23T01:19:55;98162.28;;;23.68;63.90
22259;BME280;11298;46.034;14.496;2022-07-23T01:24:50;98161.03;;;23.61;64.12
22259;BME280;11298;46.034;14.496;2022-07-23T01:27:22;98158.66;;;23.54;64.14
22259;BME280;11298;46.034;14.496;2022-07-23T01:29:54;98152.91;;;23.46;64.66
22259;BME280;11298;46.034;14.496;2022-07-23T01:32:22;98148.50;;;23.45;64.79
22259;BME280;11298;46.034;14.496;2022-07-23T01:34:49;98147.97;;;23.43;65.07
22259;BME280;11298;46.034;14.496;2022-07-23T01:37:17;98142.19;;;23.39;64.98
22259;BME280;11298;46.034;14.496;2022-07-23T01:39:44;98146.22;;;23.28;65.58
22259;BME280;11298;46.034;14.496;2022-07-23T01:42:12;98141.84;;;23.22;65.67
22259;BME280;11298;46.034;14.496;2022-07-23T01:44:40;98141.25;;;23.25;65.84
22259;BME280;11298;46.034;14.496;2022-07-23T01:47:12;98142.47;;;23.19;65.53
22259;BME280;11298;46.034;14.496;2022-07-23T01:49:39;98141.66;;;23.18;65.95
22259;BME280;11298;46.034;14.496;2022-07-23T01:52:30;98143.06;;;23.16;65.94
22259;BME280;11298;46.034;14.496;2022-07-23T01:54:57;98145.91;;;23.11;65.87
22259;BME280;11298;46.034;14.496;2022-07-23T01:57:24;98150.50;;;22.96;65.97
22259;BME280;11298;46.034;14.496;2022-07-23T01:59:51;98149.31;;;23.02;65.72
22259;BME280;11298;46.034;14.496;2022-07-23T02:02:20;98153.81;;;22.98;65.80
22259;BME280;11298;46.034;14.496;2022-07-23T02:04:47;98151.31;;;22.97;65.79
22259;BME280;11298;46.034;14.496;2022-07-23T02:07:16;98152.97;;;22.98;65.72
22259;BME280;11298;46.034;14.496;2022-07-23T02:09:43;98153.34;;;22.91;65.77
22259;BME280;11298;46.034;14.496;2022-07-23T02:12:11;98148.72;;;22.87;65.63
22259;BME280;11298;46.034;14.496;2022-07-23T02:14:38;98165.00;;;22.88;65.34
22259;BME280;11298;46.034;14.496;2022-07-23T02:17:05;98167.25;;;22.86;65.71
22259;BME280;11298;46.034;14.496;2022-07-23T02:19:34;98172.47;;;22.88;65.76
22259;BME280;11298;46.034;14.496;2022-07-23T02:22:01;98176.31;;;22.92;65.27
22259;BME280;11298;46.034;14.496;2022-07-23T02:24:28;98171.84;;;22.96;65.31
22259;BME280;11298;46.034;14.496;2022-07-23T02:26:55;98179.91;;;22.92;65.06
22259;BME280;11298;46.034;14.496;2022-07-23T02:29:22;98185.03;;;22.80;65.26
22259;BME280;11298;46.034;14.496;2022-07-23T02:31:49;98184.59;;;22.68;65.34
22259;BME280;11298;46.034;14.496;2022-07-23T02:34:17;98188.19;;;22.68;65.33
22259;BME280;11298;46.034;14.496;2022-07-23T02:36:44;98182.09;;;22.66;64.98
22259;BME280;11298;46.034;14.496;2022-07-23T02:39:12;98182.41;;;22.65;64.63
22259;BME280;11298;46.034;14.496;2022-07-23T02:41:39;98181.09;;;22.57;64.13
22259;BME280;11298;46.034;14.496;2022-07-23T02:44:07;98182.50;;;22.55;64.12
22259;BME280;11298;46.034;14.496;2022-07-23T02:46:35;98173.66;;;22.53;63.77
22259;BME280;11298;46.034;14.496;2022-07-23T02:49:02;98166.94;;;22.35;63.83
22259;BME280;11298;46.034;14.496;2022-07-23T02:51:32;98176.44;;;22.24;63.84
22259;BME280;11298;46.034;14.496;2022-07-23T02:54:03;98174.16;;;22.31;63.70
22259;BME280;11298;46.034;14.496;2022-07-23T02:56:30;98165.03;;;22.30;63.67
22259;BME280;11298;46.034;14.496;2022-07-23T02:58:57;98164.19;;;22.30;63.38
22259;BME280;11298;46.034;14.496;2022-07-23T03:01:25;98162.88;;;22.22;63.26
22259;BME280;11298;46.034;14.496;2022-07-23T03:03:52;98165.38;;;22.24;63.15
22259;BME280;11298;46.034;14.496;2022-07-23T03:06:21;98166.22;;;22.19;63.49
22259;BME280;11298;46.034;14.496;2022-07-23T03:08:49;98176.78;;;22.17;63.92
22259;BME280;11298;46.034;14.496;2022-07-23T03:11:16;98173.69;;;22.19;63.72
22259;BME280;11298;46.034;14.496;2022-07-23T03:13:44;98171.00;;;22.14;63.82
22259;BME280;11298;46.034;14.496;2022-07-23T03:16:11;98167.69;;;22.12;63.81
22259;BME280;11298;46.034;14.496;2022-07-23T03:18:39;98174.09;;;22.07;64.15
22259;BME280;11298;46.034;14.496;2022-07-23T03:21:08;98179.06;;;22.10;63.68
22259;BME280;11298;46.034;14.496;2022-07-23T03:23:37;98192.88;;;22.10;64.00
22259;BME280;11298;46.034;14.496;2022-07-23T03:26:04;98195.06;;;22.13;64.13
22259;BME280;11298;46.034;14.496;2022-07-23T03:28:31;98200.06;;;22.11;64.10
22259;BME280;11298;46.034;14.496;2022-07-23T03:30:58;98201.47;;;22.09;64.56
22259;BME280;11298;46.034;14.496;2022-07-23T03:33:25;98210.84;;;22.13;64.72
22259;BME280;11298;46.034;14.496;2022-07-23T03:35:53;98205.31;;;22.13;64.61
22259;BME280;11298;46.034;14.496;2022-07-23T03:38:24;98207.00;;;22.09;64.60
22259;BME280;11298;46.034;14.496;2022-07-23T03:40:52;98212.28;;;22.05;64.79
22259;BME280;11298;46.034;14.496;2022-07-23T03:43:19;98209.00;;;21.93;65.11
22259;BME280;11298;46.034;14.496;2022-07-23T03:45:46;98205.53;;;21.77;65.62
22259;BME280;11298;46.034;14.496;2022-07-23T03:48:14;98213.81;;;21.82;65.21
22259;BME280;11298;46.034;14.496;2022-07-23T03:50:43;98220.16;;;21.83;65.36
22259;BME280;11298;46.034;14.496;2022-07-23T03:53:10;98215.41;;;21.83;65.03
22259;BME280;11298;46.034;14.496;2022-07-23T03:55:37;98220.38;;;21.86;64.59
22259;BME280;11298;46.034;14.496;2022-07-23T03:58:04;98220.16;;;21.83;64.62
22259;BME280;11298;46.034;14.496;2022-07-23T04:00:32;98226.78;;;21.82;64.77
22259;BME280;11298;46.034;14.496;2022-07-23T04:02:58;98228.97;;;21.85;65.09
22259;BME280;11298;46.034;14.496;2022-07-23T04:05:26;98217.69;;;21.81;65.83
22259;BME280;11298;46.034;14.496;2022-07-23T04:08:03;98225.09;;;21.86;65.17
22259;BME280;11298;46.034;14.496;2022-07-23T04:10:31;98223.97;;;21.87;64.61
22259;BME280;11298;46.034;14.496;2022-07-23T04:12:57;98222.84;;;21.93;64.83
22259;BME280;11298;46.034;14.496;2022-07-23T04:15:25;98232.78;;;21.94;65.15
22259;BME280;11298;46.034;14.496;2022-07-23T04:17:52;98220.59;;;21.95;64.94
22259;BME280;11298;46.034;14.496;2022-07-23T04:20:21;98223.34;;;22.00;64.96
22259;BME280;11298;46.034;14.496;2022-07-23T04:22:54;98229.13;;;22.09;64.43
22259;BME280;11298;46.034;14.496;2022-07-23T04:25:23;98220.06;;;21.93;64.55
22259;BME280;11298;46.034;14.496;2022-07-23T04:27:49;98217.06;;;21.84;65.12
22259;BME280;11298;46.034;14.496;2022-07-23T04:30:16;98221.34;;;21.66;65.32
22259;BME280;11298;46.034;14.496;2022-07-23T04:32:44;98224.91;;;21.72;64.50
22259;BME280;11298;46.034;14.496;2022-07-23T04:35:20;98223.56;;;21.64;64.61
22259;BME280;11298;46.034;14.496;2022-07-23T04:37:49;98216.06;;;21.70;64.71
22259;BME280;11298;46.034;14.496;2022-07-23T04:40:18;98214.13;;;21.76;64.81
22259;BME280;11298;46.034;14.496;2022-07-23T04:42:48;98220.03;;;21.98;64.16
22259;BME280;11298;46.034;14.496;2022-07-23T04:45:15;98228.44;;;22.22;63.83
22259;BME280;11298;46.034;14.496;2022-07-23T04:47:43;98218.41;;;22.31;63.97
22259;BME280;11298;46.034;14.496;2022-07-23T04:50:12;98221.19;;;22.31;64.11
22259;BME280;11298;46.034;14.496;2022-07-23T04:52:40;98205.69;;;22.30;64.17
22259;BME280;11298;46.034;14.496;2022-07-23T04:55:08;98209.78;;;22.37;64.34
22259;BME280;11298;46.034;14.496;2022-07-23T04:57:35;98219.69;;;22.44;64.10
22259;BME280;11298;46.034;14.496;2022-07-23T05:00:03;98225.44;;;22.52;63.79
22259;BME280;11298;46.034;14.496;2022-07-23T05:02:31;98215.63;;;22.65;63.22
22259;BME280;11298;46.034;14.496;2022-07-23T05:04:58;98212.41;;;22.53;63.55
22259;BME280;11298;46.034;14.496;2022-07-23T05:07:25;98213.88;;;22.45;63.96
22259;BME280;11298;46.034;14.496;2022-07-23T05:09:53;98211.59;;;22.52;63.83
22259;BME280;11298;46.034;14.496;2022-07-23T05:12:20;98209.28;;;22.59;63.96
22259;BME280;11298;46.034;14.496;2022-07-23T05:14:47;98212.16;;;22.83;63.19
22259;BME280;11298;46.034;14.496;2022-07-23T05:17:14;98215.22;;;23.05;62.17
22259;BME280;11298;46.034;14.496;2022-07-23T05:19:41;98203.25;;;23.10;62.00
22259;BME280;11298;46.034;14.496;2022-07-23T05:22:08;98211.44;;;23.20;61.75
22259;BME280;11298;46.034;14.496;2022-07-23T05:24:35;98209.81;;;23.38;61.63
22259;BME280;11298;46.034;14.496;2022-07-23T05:27:03;98215.47;;;23.52;60.67
22259;BME280;11298;46.034;14.496;2022-07-23T05:29:31;98213.84;;;23.69;59.54
22259;BME280;11298;46.034;14.496;2022-07-23T05:31:58;98215.22;;;23.91;59.26
22259;BME280;11298;46.034;14.496;2022-07-23T05:34:26;98205.59;;;24.02;58.62
22259;BME280;11298;46.034;14.496;2022-07-23T05:36:53;98204.84;;;24.15;58.21
22259;BME280;11298;46.034;14.496;2022-07-23T05:39:20;98201.94;;;24.25;58.05
22259;BME280;11298;46.034;14.496;2022-07-23T05:41:47;98201.44;;;24.37;56.96
22259;BME280;11298;46.034;14.496;2022-07-23T05:44:14;98205.41;;;24.50;56.30
22259;BME280;11298;46.034;14.496;2022-07-23T05:46:43;98201.72;;;24.54;56.36
22259;BME280;11298;46.034;14.496;2022-07-23T05:49:15;98203.25;;;24.60;55.60
22259;BME280;11298;46.034;14.496;2022-07-23T05:52:07;98207.09;;;24.78;55.21
22259;BME280;11298;46.034;14.496;2022-07-23T05:54:53;98216.25;;;24.79;54.55
22259;BME280;11298;46.034;14.496;2022-07-23T05:57:21;98213.69;;;24.82;55.05
22259;BME280;11298;46.034;14.496;2022-07-23T05:59:51;98208.97;;;24.83;54.91
22259;BME280;11298;46.034;14.496;2022-07-23T06:02:18;98209.97;;;24.73;55.43
22259;BME280;11298;46.034;14.496;2022-07-23T06:04:46;98207.81;;;24.84;55.16
22259;BME280;11298;46.034;14.496;2022-07-23T06:07:25;98216.59;;;24.91;54.77
22259;BME280;11298;46.034;14.496;2022-07-23T06:09:52;98206.31;;;25.05;53.59
22259;BME280;11298;46.034;14.496;2022-07-23T06:12:20;98204.50;;;25.28;54.06
22259;BME280;11298;46.034;14.496;2022-07-23T06:14:47;98210.22;;;25.45;52.62
22259;BME280;11298;46.034;14.496;2022-07-23T06:17:16;98201.97;;;25.67;51.79
22259;BME280;11298;46.034;14.496;2022-07-23T06:19:43;98209.25;;;25.77;50.50
22259;BME280;11298;46.034;14.496;2022-07-23T06:22:10;98204.19;;;25.93;51.89
22259;BME280;11298;46.034;14.496;2022-07-23T06:24:37;98208.16;;;26.00;50.34
22259;BME280;11298;46.034;14.496;2022-07-23T06:27:04;98212.78;;;26.05;51.29
22259;BME280;11298;46.034;14.496;2022-07-23T06:29:34;98211.28;;;26.21;50.50
22259;BME280;11298;46.034;14.496;2022-07-23T06:32:01;98205.19;;;26.33;50.04
22259;BME280;11298;46.034;14.496;2022-07-23T06:34:28;98220.28;;;26.63;51.09
22259;BME280;11298;46.034;14.496;2022-07-23T06:36:56;98217.59;;;26.80;48.34
22259;BME280;11298;46.034;14.496;2022-07-23T06:39:25;98216.38;;;26.95;47.91
22259;BME280;11298;46.034;14.496;2022-07-23T06:41:53;98208.72;;;27.00;47.48
22259;BME280;11298;46.034;14.496;2022-07-23T06:44:36;98215.63;;;27.12;45.11
22259;BME280;11298;46.034;14.496;2022-07-23T06:47:06;98220.88;;;27.13;47.11
22259;BME280;11298;46.034;14.496;2022-07-23T06:49:35;98223.63;;;27.04;47.37
22259;BME280;11298;46.034;14.496;2022-07-23T06:52:02;98223.91;;;26.94;48.12
22259;BME280;11298;46.034;14.496;2022-07-23T06:54:30;98225.97;;;27.11;47.09
22259;BME280;11298;46.034;14.496;2022-07-23T06:56:57;98230.31;;;27.26;46.14
22259;BME280;11298;46.034;14.496;2022-07-23T06:59:26;98229.19;;;27.44;46.83
22259;BME280;11298;46.034;14.496;2022-07-23T07:01:53;98225.09;;;27.33;44.22
22259;BME280;11298;46.034;14.496;2022-07-23T07:04:21;98227.94;;;27.11;46.57
22259;BME280;11298;46.034;14.496;2022-07-23T07:06:48;98233.38;;;27.16;47.79
22259;BME280;11298;46.034;14.496;2022-07-23T07:09:15;98228.16;;;27.23;47.59
22259;BME280;11298;46.034;14.496;2022-07-23T07:11:42;98239.56;;;27.52;47.87
22259;BME280;11298;46.034;14.496;2022-07-23T07:14:09;98230.03;;;27.45;44.81
22259;BME280;11298;46.034;14.496;2022-07-23T07:16:37;98231.44;;;27.64;44.81
22259;BME280;11298;46.034;14.496;2022-07-23T07:19:04;98233.72;;;27.62;44.42
22259;BME280;11298;46.034;14.496;2022-07-23T07:21:32;98232.44;;;27.86;45.48
22259;BME280;11298;46.034;14.496;2022-07-23T07:23:59;98236.91;;;28.04;45.29
22259;BME280;11298;46.034;14.496;2022-07-23T07:26:26;98240.03;;;28.02;44.86
22259;BME280;11298;46.034;14.496;2022-07-23T07:28:54;98235.09;;;28.08;44.97
22259;BME280;11298;46.034;14.496;2022-07-23T07:31:20;98234.75;;;28.18;45.18
22259;BME280;11298;46.034;14.496;2022-07-23T07:33:48;98232.97;;;28.48;45.11
22259;BME280;11298;46.034;14.496;2022-07-23T07:36:15;98239.03;;;28.42;44.78
22259;BME280;11298;46.034;14.496;2022-07-23T07:38:45;98238.22;;;28.58;44.95
22259;BME280;11298;46.034;14.496;2022-07-23T07:41:12;98237.72;;;28.65;44.39
22259;BME280;11298;46.034;14.496;2022-07-23T07:43:40;98245.25;;;28.90;44.27
22259;BME280;11298;46.034;14.496;2022-07-23T07:46:07;98241.53;;;29.16;42.72
22259;BME280;11298;46.034;14.496;2022-07-23T07:48:37;98236.19;;;29.40;43.53
22259;BME280;11298;46.034;14.496;2022-07-23T07:51:05;98228.72;;;29.53;42.34
22259;BME280;11298;46.034;14.496;2022-07-23T07:53:32;98226.25;;;29.81;41.93
22259;BME280;11298;46.034;14.496;2022-07-23T07:55:59;98224.41;;;29.85;41.55
22259;BME280;11298;46.034;14.496;2022-07-23T07:58:26;98220.66;;;30.10;41.16
22259;BME280;11298;46.034;14.496;2022-07-23T08:00:54;98227.47;;;30.21;40.83
22259;BME280;11298;46.034;14.496;2022-07-23T08:03:21;98228.41;;;30.25;41.25
22259;BME280;11298;46.034;14.496;2022-07-23T08:05:49;98232.09;;;30.38;41.88
22259;BME280;11298;46.034;14.496;2022-07-23T08:08:16;98225.47;;;30.43;40.44
22259;BME280;11298;46.034;14.496;2022-07-23T08:10:43;98229.59;;;30.78;41.62
22259;BME280;11298;46.034;14.496;2022-07-23T08:13:14;98232.06;;;31.13;40.40
22259;BME280;11298;46.034;14.496;2022-07-23T08:15:42;98230.66;;;31.31;39.34
22259;BME280;11298;46.034;14.496;2022-07-23T08:18:10;98225.38;;;31.54;39.08
22259;BME280;11298;46.034;14.496;2022-07-23T08:20:37;98219.22;;;31.73;37.35
22259;BME280;11298;46.034;14.496;2022-07-23T08:23:07;98227.13;;;31.95;39.01
22259;BME280;11298;46.034;14.496;2022-07-23T08:25:37;98228.44;;;32.38;39.32
22259;BME280;11298;46.034;14.496;2022-07-23T08:28:07;98232.31;;;32.61;37.11
22259;BME280;11298;46.034;14.496;2022-07-23T08:30:35;98230.00;;;32.91;36.99
22259;BME280;11298;46.034;14.496;2022-07-23T08:33:10;98229.28;;;33.10;35.28
22259;BME280;11298;46.034;14.496;2022-07-23T08:36:00;98228.22;;;33.30;34.95
22259;BME280;11298;46.034;14.496;2022-07-23T08:38:30;98221.88;;;33.33;34.80
22259;BME280;11298;46.034;14.496;2022-07-23T08:40:58;98226.06;;;33.55;32.68
22259;BME280;11298;46.034;14.496;2022-07-23T08:43:30;98215.03;;;33.66;33.39
22259;BME280;11298;46.034;14.496;2022-07-23T08:45:59;98213.47;;;33.84;33.61
22259;BME280;11298;46.034;14.496;2022-07-23T08:48:30;98215.13;;;34.04;33.78
22259;BME280;11298;46.034;14.496;2022-07-23T08:51:00;98213.25;;;34.27;31.81
22259;BME280;11298;46.034;14.496;2022-07-23T08:53:28;98212.00;;;34.44;32.96
22259;BME280;11298;46.034;14.496;2022-07-23T08:56:00;98214.47;;;34.46;31.90
22259;BME280;11298;46.034;14.496;2022-07-23T08:58:31;98216.88;;;34.67;33.39
22259;BME280;11298;46.034;14.496;2022-07-23T09:01:00;98207.47;;;34.40;30.14
22259;BME280;11298;46.034;14.496;2022-07-23T09:03:35;98195.81;;;34.80;32.82
22259;BME280;11298;46.034;14.496;2022-07-23T09:06:04;98202.41;;;34.87;33.00
22259;BME280;11298;46.034;14.496;2022-07-23T09:08:42;98202.66;;;35.02;31.72
22259;BME280;11298;46.034;14.496;2022-07-23T09:11:15;98204.44;;;35.10;31.47
22259;BME280;11298;46.034;14.496;2022-07-23T09:13:48;98207.91;;;35.45;34.41
22259;BME280;11298;46.034;14.496;2022-07-23T09:16:30;98202.59;;;35.67;29.51
22259;BME280;11298;46.034;14.496;2022-07-23T09:19:00;98199.84;;;35.74;29.77
22259;BME280;11298;46.034;14.496;2022-07-23T09:21:31;98205.66;;;35.81;30.35
22259;BME280;11298;46.034;14.496;2022-07-23T09:26:38;98198.53;;;36.50;30.29
22259;BME280;11298;46.034;14.496;2022-07-23T09:29:23;98199.09;;;36.63;28.24
22259;BME280;11298;46.034;14.496;2022-07-23T09:36:56;98192.16;;;36.90;26.79
22259;BME280;11298;46.034;14.496;2022-07-23T09:39:32;98186.06;;;36.88;27.46
22259;BME280;11298;46.034;14.496;2022-07-23T09:44:44;98182.88;;;36.94;28.25
22259;BME280;11298;46.034;14.496;2022-07-23T09:47:12;98176.34;;;37.27;27.45
22259;BME280;11298;46.034;14.496;2022-07-23T09:49:39;98170.56;;;37.64;30.10
22259;BME280;11298;46.034;14.496;2022-07-23T09:52:06;98176.09;;;37.49;25.62
22259;BME280;11298;46.034;14.496;2022-07-23T09:54:39;98167.69;;;37.60;26.63
22259;BME280;11298;46.034;14.496;2022-07-23T09:57:10;98163.59;;;37.54;26.21
22259;BME280;11298;46.034;14.496;2022-07-23T09:59:43;98163.31;;;37.66;26.02
22259;BME280;11298;46.034;14.496;2022-07-23T10:02:13;98158.66;;;38.02;28.44
22259;BME280;11298;46.034;14.496;2022-07-23T10:05:14;98150.63;;;38.11;25.33
22259;BME280;11298;46.034;14.496;2022-07-23T10:07:57;98150.50;;;37.94;26.29
22259;BME280;11298;46.034;14.496;2022-07-23T10:10:48;98144.28;;;37.67;25.71
22259;BME280;11298;46.034;14.496;2022-07-23T10:13:25;98146.31;;;37.66;26.64
22259;BME280;11298;46.034;14.496;2022-07-23T10:16:11;98137.16;;;37.94;25.19
22259;BME280;11298;46.034;14.496;2022-07-23T10:18:42;98141.63;;;37.99;24.71
22259;BME280;11298;46.034;14.496;2022-07-23T10:21:13;98128.41;;;38.28;24.96
22259;BME280;11298;46.034;14.496;2022-07-23T10:23:58;98128.75;;;38.15;25.46
22259;BME280;11298;46.034;14.496;2022-07-23T10:26:36;98127.56;;;38.16;24.40
22259;BME280;11298;46.034;14.496;2022-07-23T10:29:13;98119.16;;;38.52;25.44
22259;BME280;11298;46.034;14.496;2022-07-23T10:31:54;98132.22;;;38.81;25.96
22259;BME280;11298;46.034;14.496;2022-07-23T10:37:21;98119.72;;;39.14;23.88
22259;BME280;11298;46.034;14.496;2022-07-23T10:40:15;98117.25;;;39.45;21.40
22259;BME280;11298;46.034;14.496;2022-07-23T10:42:45;98122.13;;;39.37;18.98
22259;BME280;11298;46.034;14.496;2022-07-23T10:47:49;98114.81;;;39.40;20.60
22259;BME280;11298;46.034;14.496;2022-07-23T10:50:26;98105.50;;;39.46;18.37
22259;BME280;11298;46.034;14.496;2022-07-23T10:53:16;98107.09;;;39.37;18.73
22259;BME280;11298;46.034;14.496;2022-07-23T10:55:50;98099.38;;;39.66;18.87
22259;BME280;11298;46.034;14.496;2022-07-23T10:58:23;98095.66;;;39.83;18.60
22259;BME280;11298;46.034;14.496;2022-07-23T11:01:35;98098.56;;;39.44;18.94
22259;BME280;11298;46.034;14.496;2022-07-23T11:04:04;98081.94;;;39.42;19.45
22259;BME280;11298;46.034;14.496;2022-07-23T11:09:27;98071.34;;;39.57;18.66
22259;BME280;11298;46.034;14.496;2022-07-23T11:15:09;98075.81;;;39.69;19.07
22259;BME280;11298;46.034;14.496;2022-07-23T11:25:30;98054.19;;;39.96;19.00
22259;BME280;11298;46.034;14.496;2022-07-23T11:30:37;98056.66;;;39.91;18.68
22259;BME280;11298;46.034;14.496;2022-07-23T11:35:40;98045.25;;;39.98;20.71
22259;BME280;11298;46.034;14.496;2022-07-23T11:40:49;98033.69;;;40.26;19.17
22259;BME280;11298;46.034;14.496;2022-07-23T11:43:17;98045.06;;;40.37;18.85
22259;BME280;11298;46.034;14.496;2022-07-23T11:45:47;98031.16;;;40.49;19.54
22259;BME280;11298;46.034;14.496;2022-07-23T11:48:23;98027.75;;;40.69;19.00
22259;BME280;11298;46.034;14.496;2022-07-23T11:50:53;98032.13;;;40.88;19.17
22259;BME280;11298;46.034;14.496;2022-07-23T11:53:31;98035.00;;;40.84;18.51
22259;BME280;11298;46.034;14.496;2022-07-23T11:56:10;98012.53;;;40.31;19.23
22259;BME280;11298;46.034;14.496;2022-07-23T11:58:38;98021.63;;;40.11;20.74
22259;BME280;11298;46.034;14.496;2022-07-23T12:01:08;98019.03;;;40.38;21.88
22259;BME280;11298;46.034;14.496;2022-07-23T12:03:51;98010.22;;;40.11;19.85
22259;BME280;11298;46.034;14.496;2022-07-23T12:06:19;98002.09;;;40.13;20.18
22259;BME280;11298;46.034;14.496;2022-07-23T12:08:46;98010.13;;;40.33;20.76
22259;BME280;11298;46.034;14.496;2022-07-23T12:11:13;98000.03;;;40.17;19.39
22259;BME280;11298;46.034;14.496;2022-07-23T12:13:40;97998.06;;;40.07;19.44
22259;BME280;11298;46.034;14.496;2022-07-23T12:16:08;97998.47;;;40.06;19.81
22259;BME280;11298;46.034;14.496;2022-07-23T12:18:35;97985.16;;;39.85;19.66
22259;BME280;11298;46.034;14.496;2022-07-23T12:21:04;97982.78;;;39.73;20.67
22259;BME280;11298;46.034;14.496;2022-07-23T12:23:33;97978.53;;;40.13;20.79
22259;BME280;11298;46.034;14.496;2022-07-23T12:26:02;97985.19;;;40.51;21.39
22259;BME280;11298;46.034;14.496;2022-07-23T12:28:32;97987.91;;;40.65;19.34
22259;BME280;11298;46.034;14.496;2022-07-23T12:31:00;97979.41;;;40.58;20.18
22259;BME280;11298;46.034;14.496;2022-07-23T12:36:14;97983.97;;;40.52;18.79
22259;BME280;11298;46.034;14.496;2022-07-23T12:38:51;97982.00;;;40.45;18.49
22259;BME280;11298;46.034;14.496;2022-07-23T12:41:19;97974.16;;;40.57;18.60
22259;BME280;11298;46.034;14.496;2022-07-23T12:43:46;97975.09;;;40.43;19.49
22259;BME280;11298;46.034;14.496;2022-07-23T12:46:14;97973.19;;;40.81;19.87
22259;BME280;11298;46.034;14.496;2022-07-23T12:51:22;97968.41;;;40.64;18.90
22259;BME280;11298;46.034;14.496;2022-07-23T12:53:58;97966.91;;;40.52;18.54
22259;BME280;11298;46.034;14.496;2022-07-23T12:56:29;97961.75;;;40.33;19.20
22259;BME280;11298;46.034;14.496;2022-07-23T13:01:33;97961.44;;;40.16;18.58
22259;BME280;11298;46.034;14.496;2022-07-23T13:06:30;97956.00;;;40.40;19.03
22259;BME280;11298;46.034;14.496;2022-07-23T13:08:58;97956.75;;;40.47;18.92
22259;BME280;11298;46.034;14.496;2022-07-23T13:11:27;97954.28;;;40.53;18.32
22259;BME280;11298;46.034;14.496;2022-07-23T13:13:56;97958.41;;;40.45;17.71
22259;BME280;11298;46.034;14.496;2022-07-23T13:16:24;97948.69;;;40.39;18.85
22259;BME280;11298;46.034;14.496;2022-07-23T13:18:54;97962.75;;;40.57;18.55
22259;BME280;11298;46.034;14.496;2022-07-23T13:21:25;97959.16;;;40.53;18.05
22259;BME280;11298;46.034;14.496;2022-07-23T13:23:52;97957.69;;;40.27;17.51
22259;BME280;11298;46.034;14.496;2022-07-23T13:26:19;97954.56;;;40.10;17.96
22259;BME280;11298;46.034;14.496;2022-07-23T13:28:48;97953.47;;;39.90;18.50
22259;BME280;11298;46.034;14.496;2022-07-23T13:31:17;97947.53;;;40.26;18.36
22259;BME280;11298;46.034;14.496;2022-07-23T13:33:45;97937.09;;;40.08;18.15
22259;BME280;11298;46.034;14.496;2022-07-23T13:36:14;97944.28;;;40.27;18.00
22259;BME280;11298;46.034;14.496;2022-07-23T13:38:41;97951.56;;;40.32;17.51
22259;BME280;11298;46.034;14.496;2022-07-23T13:41:10;97941.09;;;40.18;17.72
22259;BME280;11298;46.034;14.496;2022-07-23T13:43:38;97943.06;;;40.25;17.64
22259;BME280;11298;46.034;14.496;2022-07-23T13:46:06;97939.44;;;40.20;17.05
22259;BME280;11298;46.034;14.496;2022-07-23T13:48:33;97941.56;;;40.09;17.60
22259;BME280;11298;46.034;14.496;2022-07-23T13:51:01;97939.56;;;40.06;18.25
22259;BME280;11298;46.034;14.496;2022-07-23T13:53:28;97936.66;;;40.13;18.32